Map

Track Data

SID SEASON NUMBER BASIN SUBBASIN NAME ISO_TIME NATURE LAT LON WMO_WIND WMO_PRES WMO_AGENCY TRACK_TYPE DIST2LAND LANDFALL IFLAG USA_AGENCY USA_ATCF_ID USA_LAT USA_LON USA_RECORD USA_STATUS USA_WIND USA_PRES USA_SSHS USA_R34_NE USA_R34_SE USA_R34_SW USA_R34_NW USA_R50_NE USA_R50_SE USA_R50_SW USA_R50_NW USA_R64_NE USA_R64_SE USA_R64_SW USA_R64_NW USA_POCI USA_ROCI USA_RMW USA_EYE TOKYO_LAT TOKYO_LON TOKYO_GRADE TOKYO_WIND TOKYO_PRES TOKYO_R50_DIR TOKYO_R50_LONG TOKYO_R50_SHORT TOKYO_R30_DIR TOKYO_R30_LONG TOKYO_R30_SHORT TOKYO_LAND CMA_LAT CMA_LON CMA_CAT CMA_WIND CMA_PRES HKO_LAT HKO_LON HKO_CAT HKO_WIND HKO_PRES NEWDELHI_LAT NEWDELHI_LON NEWDELHI_GRADE NEWDELHI_WIND NEWDELHI_PRES NEWDELHI_CI NEWDELHI_DP NEWDELHI_POCI REUNION_LAT REUNION_LON REUNION_TYPE REUNION_WIND REUNION_PRES REUNION_TNUM REUNION_CI REUNION_RMW REUNION_R34_NE REUNION_R34_SE REUNION_R34_SW REUNION_R34_NW REUNION_R50_NE REUNION_R50_SE REUNION_R50_SW REUNION_R50_NW REUNION_R64_NE REUNION_R64_SE REUNION_R64_SW REUNION_R64_NW BOM_LAT BOM_LON BOM_TYPE BOM_WIND BOM_PRES BOM_TNUM BOM_CI BOM_RMW BOM_R34_NE BOM_R34_SE BOM_R34_SW BOM_R34_NW BOM_R50_NE BOM_R50_SE BOM_R50_SW BOM_R50_NW BOM_R64_NE BOM_R64_SE BOM_R64_SW BOM_R64_NW BOM_ROCI BOM_POCI BOM_EYE BOM_POS_METHOD BOM_PRES_METHOD NADI_LAT NADI_LON NADI_CAT NADI_WIND NADI_PRES WELLINGTON_LAT WELLINGTON_LON WELLINGTON_WIND WELLINGTON_PRES DS824_LAT DS824_LON DS824_STAGE DS824_WIND DS824_PRES TD9636_LAT TD9636_LON TD9636_STAGE TD9636_WIND TD9636_PRES TD9635_LAT TD9635_LON TD9635_WIND TD9635_PRES TD9635_ROCI NEUMANN_LAT NEUMANN_LON NEUMANN_CLASS NEUMANN_WIND NEUMANN_PRES MLC_LAT MLC_LON MLC_CLASS MLC_WIND MLC_PRES USA_GUST BOM_GUST BOM_GUST_PER REUNION_GUST REUNION_GUST_PER USA_SEAHGT USA_SEARAD_NE USA_SEARAD_SE USA_SEARAD_SW USA_SEARAD_NW STORM_SPEED STORM_DIR
1911259N34305 1911 60 NA NA NOT_NAMED 1911-09-15 12:00:00 TS 34.0000 -55.0000 45 hurdat_atl main 1350 1350 O_____________ hurdat_atl AL051911 34.0000 -55.0000 TS 45 0 0 0
1911259N34305 1911 60 NA NA NOT_NAMED 1911-09-15 15:00:00 TS 34.0000 -55.0025 main 1350 1350 P_____________ AL051911 34.0000 -55.0025 TS 45 0 0 0
1911259N34305 1911 60 NA NA NOT_NAMED 1911-09-15 18:00:00 TS 34.0000 -55.0000 45 hurdat_atl main 1350 1350 O_____________ hurdat_atl AL051911 34.0000 -55.0000 TS 45 0 0 0
1911259N34305 1911 60 NA NA NOT_NAMED 1911-09-15 21:00:00 TS 34.0000 -54.9925 main 1350 1350 P_____________ AL051911 34.0000 -54.9925 TS 45 0 0 0
1911259N34305 1911 60 NA NA NOT_NAMED 1911-09-16 00:00:00 TS 34.0000 -55.0000 45 hurdat_atl main 1350 1350 O_____________ hurdat_atl AL051911 34.0000 -55.0000 TS 45 0 0 0
1911259N34305 1911 60 NA NA NOT_NAMED 1911-09-16 03:00:00 TS 33.9999 -55.0200 main 1350 1346 P_____________ AL051911 33.9999 -55.0200 TS 47 0 1 270
1911259N34305 1911 60 NA NA NOT_NAMED 1911-09-16 06:00:00 TS 34.0000 -55.1000 50 hurdat_atl main 1346 1343 O_____________ hurdat_atl AL051911 34.0000 -55.1000 TS 50 0 2 270
1911259N34305 1911 60 NA NA NOT_NAMED 1911-09-16 09:00:00 TS 33.9998 -55.2475 main 1343 1334 P_____________ AL051911 33.9998 -55.2475 TS 50 0 3 270
1911259N34305 1911 60 NA NA NOT_NAMED 1911-09-16 12:00:00 TS 34.0000 -55.5000 50 hurdat_atl main 1334 1325 O_____________ hurdat_atl AL051911 34.0000 -55.5000 TS 50 0 5 270
1911259N34305 1911 60 NA NA NOT_NAMED 1911-09-16 15:00:00 TS 33.9999 -55.8550 main 1322 1311 P_____________ AL051911 33.9999 -55.8550 TS 50 0 7 270
1911259N34305 1911 60 NA NA NOT_NAMED 1911-09-16 18:00:00 TS 34.0000 -56.3000 50 hurdat_atl main 1311 1291 O_____________ hurdat_atl AL051911 34.0000 -56.3000 TS 50 0 7 270
1911259N34305 1911 60 NA NA NOT_NAMED 1911-09-16 21:00:00 TS 33.9995 -56.7550 main 1286 1262 P_____________ AL051911 33.9995 -56.7550 TS 52 0 8 270
1911259N34305 1911 60 NA NA NOT_NAMED 1911-09-17 00:00:00 TS 34.0000 -57.3000 55 hurdat_atl main 1262 1234 O_____________ hurdat_atl AL051911 34.0000 -57.3000 TS 55 0 10 270
1911259N34305 1911 60 NA NA NOT_NAMED 1911-09-17 03:00:00 TS 34.0002 -57.9775 main 1230 1200 P_____________ AL051911 34.0002 -57.9775 TS 55 0 12 270
1911259N34305 1911 60 NA NA NOT_NAMED 1911-09-17 06:00:00 TS 34.0000 -58.7000 55 hurdat_atl main 1200 1177 O_____________ hurdat_atl AL051911 34.0000 -58.7000 TS 55 0 12 268
1911259N34305 1911 60 NA NA NOT_NAMED 1911-09-17 09:00:00 TS 33.9624 -59.3807 main 1173 1152 P_____________ AL051911 33.9624 -59.3807 TS 55 0 11 270
1911259N34305 1911 60 NA NA NOT_NAMED 1911-09-17 12:00:00 TS 34.0000 -60.0000 55 hurdat_atl main 1152 1114 O_____________ hurdat_atl AL051911 34.0000 -60.0000 TS 55 0 10 282
1911259N34305 1911 60 NA NA NOT_NAMED 1911-09-17 15:00:00 TS 34.1747 -60.5376 main 1114 1067 P_____________ AL051911 34.1747 -60.5376 TS 55 0 10 301
1911259N34305 1911 60 NA NA NOT_NAMED 1911-09-17 18:00:00 TS 34.5000 -61.0000 55 hurdat_atl main 1067 1013 O_____________ hurdat_atl AL051911 34.5000 -61.0000 TS 55 0 10 316
1911259N34305 1911 60 NA NA NOT_NAMED 1911-09-17 21:00:00 TS 34.9247 -61.4157 main 1013 939 P_____________ AL051911 34.9247 -61.4157 TS 52 0 12 327
1911259N34305 1911 60 NA NA NOT_NAMED 1911-09-18 00:00:00 TS 35.5000 -61.8000 50 hurdat_atl main 939 854 O_____________ hurdat_atl AL051911 35.5000 -61.8000 TS 50 0 15 334
1911259N34305 1911 60 NA NA NOT_NAMED 1911-09-18 03:00:00 TS 36.2498 -62.1923 main 854 758 P_____________ AL051911 36.2498 -62.1923 TS 50 0 16 337
1911259N34305 1911 60 NA NA NOT_NAMED 1911-09-18 06:00:00 TS 37.0000 -62.6000 50 hurdat_atl main 758 695 O_____________ hurdat_atl AL051911 37.0000 -62.6000 TS 50 0 15 333
1911259N34305 1911 60 NA NA NOT_NAMED 1911-09-18 09:00:00 TS 37.5523 -63.0359 main 684 630 P_____________ AL051911 37.5523 -63.0359 TS 47 0 12 324
1911259N34305 1911 60 NA NA NOT_NAMED 1911-09-18 12:00:00 TS 38.0000 -63.5000 45 hurdat_atl main 630 577 O_____________ hurdat_atl AL051911 38.0000 -63.5000 TS 45 0 11 320
1911259N34305 1911 60 NA NA NOT_NAMED 1911-09-18 15:00:00 TS 38.4297 -63.9781 main 577 527 P_____________ AL051911 38.4297 -63.9781 TS 45 0 11 316
1911259N34305 1911 60 NA NA NOT_NAMED 1911-09-18 18:00:00 TS 38.8000 -64.5000 45 hurdat_atl main 527 489 O_____________ hurdat_atl AL051911 38.8000 -64.5000 TS 45 0 11 309
1911259N34305 1911 60 NA NA NOT_NAMED 1911-09-18 21:00:00 TS 39.1301 -65.1001 main 489 443 P_____________ AL051911 39.1301 -65.1001 TS 42 0 11 303
1911259N34305 1911 60 NA NA NOT_NAMED 1911-09-19 00:00:00 TS 39.4000 -65.7000 40 hurdat_atl main 443 395 O_____________ hurdat_atl AL051911 39.4000 -65.7000 TS 40 0 10 300
1911259N34305 1911 60 NA NA NOT_NAMED 1911-09-19 03:00:00 TS 39.6297 -66.2304 main 395 348 P_____________ AL051911 39.6297 -66.2304 TS 40 0 9 297
1911259N34305 1911 60 NA NA NOT_NAMED 1911-09-19 06:00:00 TS 39.8000 -66.7000 40 hurdat_atl main 348 315 O_____________ hurdat_atl AL051911 39.8000 -66.7000 TS 40 0 8 293
1911259N34305 1911 60 NA NA NOT_NAMED 1911-09-19 09:00:00 TS 39.9375 -67.1526 main 308 282 P_____________ AL051911 39.9375 -67.1526 TS 40 0 6 288
1911259N34305 1911 60 NA NA NOT_NAMED 1911-09-19 12:00:00 ET 40.0000 -67.5000 40 hurdat_atl main 282 270 O_____________ hurdat_atl AL051911 40.0000 -67.5000 EX 40 -4 4 276
1911259N34305 1911 60 NA NA NOT_NAMED 1911-09-19 15:00:00 ET 39.9873 -67.7253 main 270 264 P_____________ AL051911 39.9873 -67.7253 EX 40 -4 3 246
1911259N34305 1911 60 NA NA NOT_NAMED 1911-09-19 18:00:00 ET 39.9000 -67.8000 40 hurdat_atl main 272 272 O_____________ hurdat_atl AL051911 39.9000 -67.8000 EX 40 -4 2 187
1911259N34305 1911 60 NA NA NOT_NAMED 1911-09-19 21:00:00 ET 39.7650 -67.7449 main 286 286 P_____________ AL051911 39.7650 -67.7449 EX 37 -4 3 153
1911259N34305 1911 60 NA NA NOT_NAMED 1911-09-20 00:00:00 ET 39.6000 -67.6000 35 hurdat_atl main 308 308 O_____________ hurdat_atl AL051911 39.6000 -67.6000 EX 35 -4 4 145
1911259N34305 1911 60 NA NA NOT_NAMED 1911-09-20 03:00:00 ET 39.4500 -67.4575 main 322 322 P_____________ AL051911 39.4500 -67.4575 EX 35 -4 4 143
1911259N34305 1911 60 NA NA NOT_NAMED 1911-09-20 06:00:00 ET 39.3000 -67.3000 35 hurdat_atl main 350 350 O_____________ hurdat_atl AL051911 39.3000 -67.3000 EX 35 -4 4 141
1911259N34305 1911 60 NA NA NOT_NAMED 1911-09-20 09:00:00 ET 39.1500 -67.1501 main 373 373 P_____________ AL051911 39.1500 -67.1501 EX 32 -4 4 142
1911259N34305 1911 60 NA NA NOT_NAMED 1911-09-20 12:00:00 ET 39.0000 -67.0000 30 hurdat_atl main 393 393 O_____________ hurdat_atl AL051911 39.0000 -67.0000 EX 30 -4 4 142
1911259N34305 1911 60 NA NA NOT_NAMED 1911-09-20 15:00:00 ET 38.8500 -66.8499 main 412 412 P_____________ AL051911 38.8500 -66.8499 EX 27 -4 4 142
1911259N34305 1911 60 NA NA NOT_NAMED 1911-09-20 18:00:00 ET 38.7000 -66.7000 25 hurdat_atl main 435 O_____________ hurdat_atl AL051911 38.7000 -66.7000 EX 25 -4 4 142

About IBTrACS Database

This database is a web-friendly format of International Best Track Archive for Climate Stewardship (IBTrACS), a global best track data archive curated by NOAA dating back to 1842.

Updated: 2021-12-01